الصفحة الرئيسية
METAR-TAF:

METAR-TAF

مطار :

أودنسه, الدنمارك

دائرة عرض: 55-29N, خط طول: 010-20E, ارتفاع: 17 متر

مراقبة الطقس الحالي

تاريخ ووقت الإصدار 6ساعات و 17 دقيقة قبل الساعة 13:50UTC
ريح 9 عقدة من الشرق
درجة الحرارة 8°درجة مئوية
الرطوبة 93%
ضغط 1008 hPa
الرؤية: 2000 متر
غشاء,

METAR: EKOD 031350Z 08009KT 2000 BR VV005 08/07 Q1008 CLOUD HIGHTS ESTEMATED

زمن: 21:07 (20:07 UTC)

توقعات

تاريخ ووقت الإصدار 11ساعات و 13 دقيقة قبل الساعة 08:54UTC
التوقعات صالحة من03 الساعة 09 UTC إلى 03 الساعة 14 UTC
ريح 10 عقدة من الشرق/الشمال الشرقي
الرؤية: 0800 متر
ملبد بالغيوم على ارتفاع 300 قدم
ضباب
أصبح
من 03 الساعة 09 UTC إلى 03 الساعة 11 UTC
الرؤية: 1500 متر
غشاء
مؤقت
من 03 الساعة 11 UTC إلى 03 الساعة 14 UTC
الرؤية: 5000 متر
غيوم مفككة على ارتفاع 500 قدم

TAF: EKOD 030854Z 0309/0314 07010KT 0800 FG OVC003 BECMG 0309/0311 1500 BR TEMPO 0311/0314 5000 BKN005

أرصاد الطقس والتوقعات من أكثر من 4000 مطار (تقارير الطقس للمطار METAR والتنبؤ بالطقس بالمطارTAF).

المحطات المتاحة هي النقط الصفراء والحمراء على الخريطة.

حرك المؤشر فوق النقطة لمعرفة اسم المحطة.

ثم انقر لمعرفة أرصاد وتوقعات الطقس.

لتغيير الخارطة: اضغط على الأزرار الخضراء مع رمز الصليب الأسود للتكبير. على الزر الأخضر مع شرطة للتصغير، أو على الأسهم الخضراء للخرائط المجاورة.


METAR-TAF: